createdAt,value
2022-10-18T00:02:14.183Z,102036.28
2022-10-18T00:04:40.811Z,102040.69
2022-10-18T00:07:07.507Z,102037.13
2022-10-18T00:09:34.426Z,102045.28
2022-10-18T00:12:01.027Z,102046.28
2022-10-18T00:14:27.595Z,102056.31
2022-10-18T00:16:54.173Z,102051.72
2022-10-18T00:19:20.746Z,102052.75
2022-10-18T00:21:50.329Z,102051.91
2022-10-18T00:24:16.935Z,102050.03
2022-10-18T00:26:43.579Z,102049.19
2022-10-18T00:29:13.894Z,102048.00
2022-10-18T00:31:40.935Z,102047.31
2022-10-18T00:34:12.188Z,102044.59
2022-10-18T00:36:39.061Z,102037.97
2022-10-18T00:39:07.650Z,102047.16
2022-10-18T00:41:36.076Z,102046.47
2022-10-18T00:44:27.290Z,102049.19
2022-10-18T00:47:02.480Z,102051.72
2022-10-18T00:49:34.002Z,102053.41
2022-10-18T00:52:29.904Z,102043.41
2022-10-18T00:54:57.855Z,102052.94
2022-10-18T00:57:25.431Z,102042.06
2022-10-18T00:59:52.922Z,102053.59
2022-10-18T01:02:19.623Z,102050.03
2022-10-18T01:04:47.212Z,102047.31
2022-10-18T01:07:25.662Z,102041.22
2022-10-18T01:10:22.729Z,102041.72
2022-10-18T01:13:09.826Z,102047.50
2022-10-18T01:15:39.382Z,102047.50
2022-10-18T01:18:12.026Z,102050.03
2022-10-18T01:21:29.601Z,102046.47
2022-10-18T01:24:49.615Z,102050.88
2022-10-18T01:27:40.752Z,102049.84
2022-10-18T01:30:35.759Z,102052.09
2022-10-18T01:33:26.778Z,102058.19
2022-10-18T01:36:21.363Z,102052.94
2022-10-18T01:38:52.345Z,102049.53
2022-10-18T01:41:22.675Z,102056.00
2022-10-18T01:43:53.070Z,102059.38
2022-10-18T01:46:24.028Z,102056.00
2022-10-18T01:48:52.658Z,102060.41
2022-10-18T01:51:29.681Z,102062.78
2022-10-18T01:53:57.071Z,102063.66
2022-10-18T01:56:36.687Z,102062.28
2022-10-18T01:59:15.384Z,102061.78
2022-10-18T02:01:47.520Z,102064.69
2022-10-18T02:04:52.731Z,102067.22
2022-10-18T02:07:28.655Z,102060.94
2022-10-18T02:10:01.724Z,102070.94
2022-10-18T02:12:32.512Z,102078.75
2022-10-18T02:15:01.496Z,102069.59
2022-10-18T02:17:30.496Z,102074.34
2022-10-18T02:19:58.198Z,102079.59
2022-10-18T02:22:28.098Z,102076.03
2022-10-18T02:24:57.886Z,102081.47
2022-10-18T02:27:24.938Z,102087.91
2022-10-18T02:29:52.772Z,102088.94
2022-10-18T02:32:53.565Z,102080.97
2022-10-18T02:35:37.518Z,102080.97
2022-10-18T02:38:07.113Z,102080.28
2022-10-18T02:40:33.782Z,102080.28
2022-10-18T02:43:00.373Z,102081.97
2022-10-18T02:45:27.446Z,102086.56
2022-10-18T02:47:54.080Z,102092.00
2022-10-18T02:50:20.769Z,102078.59
2022-10-18T02:52:47.361Z,102080.47
2022-10-18T02:55:14.037Z,102084.88
2022-10-18T02:57:40.691Z,102090.66
2022-10-18T03:00:08.195Z,102089.78
2022-10-18T03:02:35.175Z,102088.09
2022-10-18T03:05:01.835Z,102086.91
2022-10-18T03:07:28.668Z,102096.56
2022-10-18T03:09:55.357Z,102092.47
2022-10-18T03:12:21.945Z,102092.34
2022-10-18T03:14:48.529Z,102096.75
2022-10-18T03:17:15.134Z,102098.94
2022-10-18T03:19:41.730Z,102107.25
2022-10-18T03:22:08.338Z,102101.50
2022-10-18T03:24:34.903Z,102101.50
2022-10-18T03:27:01.632Z,102107.06
2022-10-18T03:29:28.201Z,102114.03
2022-10-18T03:31:54.760Z,102125.56
2022-10-18T03:34:21.345Z,102115.91
2022-10-18T03:36:47.940Z,102119.47
2022-10-18T03:39:14.550Z,102116.91
2022-10-18T03:41:41.167Z,102122.50
2022-10-18T03:44:07.745Z,102111.81
2022-10-18T03:46:34.301Z,102113.50
2022-10-18T03:49:00.875Z,102109.78
2022-10-18T03:51:27.441Z,102112.50
2022-10-18T03:53:54.028Z,102109.47
2022-10-18T03:56:20.583Z,102110.97
2022-10-18T03:58:47.138Z,102108.94
2022-10-18T04:01:13.773Z,102110.97
2022-10-18T04:03:40.399Z,102116.75
2022-10-18T04:06:09.879Z,102116.41
2022-10-18T04:08:36.515Z,102110.13
2022-10-18T04:11:08.528Z,102115.72
2022-10-18T04:13:37.067Z,102117.41
2022-10-18T04:16:03.653Z,102112.00
2022-10-18T04:18:30.254Z,102111.81
2022-10-18T04:20:56.835Z,102114.34
2022-10-18T04:23:23.487Z,102113.50
2022-10-18T04:25:50.125Z,102116.91
2022-10-18T04:28:16.730Z,102110.97
2022-10-18T04:30:43.306Z,102112.84
2022-10-18T04:33:09.890Z,102103.69
2022-10-18T04:35:36.821Z,102110.97
2022-10-18T04:38:03.416Z,102110.81
2022-10-18T04:40:29.971Z,102110.81
2022-10-18T04:42:56.545Z,102112.84
2022-10-18T04:45:23.129Z,102110.13
2022-10-18T04:47:49.687Z,102116.41
2022-10-18T04:50:16.436Z,102109.28
2022-10-18T04:52:43.032Z,102104.53
2022-10-18T04:55:09.867Z,102117.41
2022-10-18T04:57:36.447Z,102104.22
2022-10-18T05:00:03.820Z,102103.00
2022-10-18T05:02:30.704Z,102095.91
2022-10-18T05:04:57.713Z,102103.00
2022-10-18T05:07:24.425Z,102101.16
2022-10-18T05:09:50.997Z,102093.19
2022-10-18T05:12:17.566Z,102088.97
2022-10-18T05:14:44.145Z,102092.34
2022-10-18T05:17:10.731Z,102087.94
2022-10-18T05:19:37.294Z,102083.72
2022-10-18T05:22:03.853Z,102075.41
2022-10-18T05:24:30.393Z,102089.13
2022-10-18T05:26:57.535Z,102092.88
2022-10-18T05:29:24.704Z,102086.06
2022-10-18T05:31:51.439Z,102100.47
2022-10-18T05:34:18.104Z,102092.69
2022-10-18T05:36:44.677Z,102092.16
2022-10-18T05:39:11.269Z,102087.94
2022-10-18T05:41:37.867Z,102096.75
2022-10-18T05:44:06.111Z,102089.44
2022-10-18T05:46:33.427Z,102083.19
2022-10-18T05:49:00.002Z,102090.47
2022-10-18T05:51:26.583Z,102085.91
2022-10-18T05:53:54.720Z,102091.66
2022-10-18T05:56:21.341Z,102095.06
2022-10-18T05:58:51.351Z,102099.63
2022-10-18T06:01:18.683Z,102105.06
2022-10-18T06:03:45.262Z,102113.38
2022-10-18T06:06:13.879Z,102115.06
2022-10-18T06:08:41.509Z,102112.00
2022-10-18T06:11:10.093Z,102110.81
2022-10-18T06:13:41.690Z,102113.19
2022-10-18T06:16:08.600Z,102120.31
2022-10-18T06:18:35.181Z,102133.53
2022-10-18T06:21:01.770Z,102136.75
2022-10-18T06:23:28.755Z,102144.91
2022-10-18T06:26:02.597Z,102143.00
2022-10-18T06:28:30.427Z,102142.66
2022-10-18T06:30:57.833Z,102128.41
2022-10-18T06:33:24.466Z,102122.47
2022-10-18T06:35:58.895Z,102126.06
2022-10-18T06:38:26.227Z,102123.84
2022-10-18T06:40:53.594Z,102126.91
2022-10-18T06:43:21.616Z,102124.19
2022-10-18T06:45:49.180Z,102113.66
2022-10-18T06:48:16.314Z,102119.59
2022-10-18T06:50:43.175Z,102124.50
2022-10-18T06:53:09.780Z,102121.47
2022-10-18T06:55:36.453Z,102122.31
2022-10-18T06:58:03.101Z,102126.91
2022-10-18T07:00:29.795Z,102124.19
2022-10-18T07:02:58.260Z,102125.19
2022-10-18T07:05:25.053Z,102121.47
2022-10-18T07:07:54.295Z,102120.47
2022-10-18T07:10:23.923Z,102123.00
2022-10-18T07:12:53.426Z,102116.41
2022-10-18T07:15:24.219Z,102118.75
2022-10-18T07:17:50.885Z,102114.38
2022-10-18T07:20:17.791Z,102116.22
2022-10-18T07:22:44.483Z,102121.13
2022-10-18T07:25:11.079Z,102135.41
2022-10-18T07:27:42.381Z,102141.81
2022-10-18T07:30:11.200Z,102138.25
2022-10-18T07:32:37.794Z,102127.41
2022-10-18T07:35:04.628Z,102133.00
2022-10-18T07:37:31.909Z,102131.66
2022-10-18T07:39:58.676Z,102125.22
2022-10-18T07:42:25.318Z,102128.59
2022-10-18T07:44:51.954Z,102132.81
2022-10-18T07:47:18.542Z,102130.47
2022-10-18T07:49:45.185Z,102132.69
2022-10-18T07:52:11.827Z,102126.56
2022-10-18T07:54:38.446Z,102113.84
2022-10-18T07:57:05.412Z,102121.81
2022-10-18T07:59:32.070Z,102116.53
2022-10-18T08:01:58.759Z,102115.88
2022-10-18T08:04:25.480Z,102127.94
2022-10-18T08:06:52.043Z,102134.88
2022-10-18T08:09:18.633Z,102128.94
2022-10-18T08:11:45.207Z,102132.69
2022-10-18T08:14:11.771Z,102128.59
2022-10-18T08:16:38.368Z,102127.94
2022-10-18T08:19:04.984Z,102134.53
2022-10-18T08:21:31.831Z,102141.50
2022-10-18T08:23:58.492Z,102137.56
2022-10-18T08:26:25.261Z,102131.13
2022-10-18T08:29:10.171Z,102113.84
2022-10-18T08:31:38.553Z,102117.91
2022-10-18T08:34:05.121Z,102114.53
2022-10-18T08:36:31.686Z,102120.47
2022-10-18T08:38:58.806Z,102122.16
2022-10-18T08:41:37.180Z,102131.13
2022-10-18T08:44:07.465Z,102128.09
2022-10-18T08:46:36.441Z,102137.75
2022-10-18T08:49:05.564Z,102144.88
2022-10-18T08:51:44.537Z,102149.94
2022-10-18T08:54:14.084Z,102148.59
2022-10-18T08:56:50.756Z,102161.16
2022-10-18T08:59:18.033Z,102166.56
2022-10-18T09:02:07.775Z,102155.53
2022-10-18T09:04:37.290Z,102135.88
2022-10-18T09:07:21.996Z,102135.72
2022-10-18T09:10:14.594Z,102146.91
2022-10-18T09:12:55.709Z,102166.41
2022-10-18T09:15:59.600Z,102171.50
2022-10-18T09:18:29.007Z,102179.78
2022-10-18T09:20:58.486Z,102178.63
2022-10-18T09:23:44.124Z,102158.63
2022-10-18T09:26:17.295Z,102146.91
2022-10-18T09:29:13.567Z,102153.69
2022-10-18T09:31:55.357Z,102140.66
2022-10-18T09:34:43.666Z,102142.16
2022-10-18T09:37:13.527Z,102154.69
2022-10-18T09:39:41.014Z,102155.53
2022-10-18T09:42:31.730Z,102143.34
2022-10-18T09:45:24.340Z,102128.41
2022-10-18T09:48:08.545Z,102127.06
2022-10-18T09:50:51.210Z,102125.72
2022-10-18T09:53:38.503Z,102117.41
2022-10-18T09:56:26.509Z,102117.41
2022-10-18T09:58:53.133Z,102119.44
2022-10-18T10:01:25.845Z,102125.53
2022-10-18T10:03:53.049Z,102131.31
2022-10-18T10:06:25.444Z,102129.97
2022-10-18T10:08:58.366Z,102135.53
2022-10-18T10:11:46.222Z,102126.91
2022-10-18T10:14:18.200Z,102128.78
2022-10-18T10:16:49.653Z,102133.34
2022-10-18T10:19:37.740Z,102146.25
2022-10-18T10:22:09.035Z,102141.50
2022-10-18T10:24:49.405Z,102140.28
2022-10-18T10:27:33.067Z,102151.31
2022-10-18T10:30:06.723Z,102150.81
2022-10-18T10:32:46.430Z,102145.22
2022-10-18T10:35:41.441Z,102145.03
2022-10-18T10:38:23.890Z,102149.13
2022-10-18T10:40:50.878Z,102149.13
2022-10-18T10:43:37.211Z,102135.75
2022-10-18T10:46:11.187Z,102130.31
2022-10-18T10:49:27.975Z,102135.75
2022-10-18T10:52:08.443Z,102133.16
2022-10-18T10:54:50.437Z,102127.75
2022-10-18T10:57:24.878Z,102133.53
2022-10-18T10:59:57.075Z,102130.81
2022-10-18T11:02:31.310Z,102128.28
2022-10-18T11:05:21.668Z,102130.13
2022-10-18T11:07:52.169Z,102129.97
2022-10-18T11:10:22.981Z,102130.13
2022-10-18T11:13:18.481Z,102123.69
2022-10-18T11:15:57.431Z,102117.78
2022-10-18T11:18:36.655Z,102110.47
2022-10-18T11:21:10.707Z,102112.34
2022-10-18T11:23:42.394Z,102108.75
2022-10-18T11:26:11.781Z,102099.47
2022-10-18T11:29:09.285Z,102095.06
2022-10-18T11:32:14.072Z,102092.84
2022-10-18T11:34:52.825Z,102092.00
2022-10-18T11:37:38.517Z,102084.34
2022-10-18T11:40:14.817Z,102077.94
2022-10-18T11:42:56.392Z,102072.34
2022-10-18T11:45:54.653Z,102068.06
2022-10-18T11:48:39.927Z,102066.06
2022-10-18T11:51:38.643Z,102052.31
2022-10-18T11:54:16.872Z,102048.09
2022-10-18T11:56:55.009Z,102046.22
2022-10-18T11:59:58.378Z,102037.91
2022-10-18T12:02:47.000Z,102036.22
2022-10-18T12:05:30.022Z,102051.31
2022-10-18T12:08:13.467Z,102043.16
2022-10-18T12:10:59.891Z,102050.47
2022-10-18T12:13:37.181Z,102049.63
2022-10-18T12:16:06.898Z,102051.66
2022-10-18T12:18:36.064Z,102060.94
2022-10-18T12:21:03.728Z,102068.25
2022-10-18T12:23:30.327Z,102061.13
2022-10-18T12:26:02.447Z,102065.22
2022-10-18T12:28:54.027Z,102075.72
2022-10-18T12:31:26.762Z,102075.03
2022-10-18T12:34:03.584Z,102069.63
2022-10-18T12:37:01.381Z,102069.94
2022-10-18T12:39:43.679Z,102069.94
2022-10-18T12:42:29.205Z,102062.47
2022-10-18T12:45:22.913Z,102063.31
2022-10-18T12:47:49.644Z,102073.31
2022-10-18T12:50:31.245Z,102070.78
2022-10-18T12:53:03.621Z,102060.44
2022-10-18T12:55:34.383Z,102056.72
2022-10-18T12:58:03.547Z,102057.75
2022-10-18T13:00:30.100Z,102069.63
2022-10-18T13:03:18.038Z,102069.28
2022-10-18T13:05:55.898Z,102063.31
2022-10-18T13:08:33.256Z,102061.81
2022-10-18T13:11:11.733Z,102059.78
2022-10-18T13:14:06.217Z,102058.41
2022-10-18T13:16:54.692Z,102066.06
2022-10-18T13:19:58.105Z,102067.09
2022-10-18T13:22:40.636Z,102062.34
2022-10-18T13:25:44.328Z,102071.50
2022-10-18T13:28:29.214Z,102065.88
2022-10-18T13:31:08.124Z,102071.50
2022-10-18T13:33:39.750Z,102067.75
2022-10-18T13:36:22.760Z,102066.56
2022-10-18T13:39:04.962Z,102064.56
2022-10-18T13:41:43.393Z,102060.81
2022-10-18T13:44:37.758Z,102059.13
2022-10-18T13:47:04.372Z,102058.78
2022-10-18T13:49:40.111Z,102062.16
2022-10-18T13:52:43.605Z,102060.47
2022-10-18T13:55:41.095Z,102063.84
2022-10-18T13:58:48.894Z,102070.66
2022-10-18T14:02:01.380Z,102071.31
2022-10-18T14:04:37.949Z,102072.81
2022-10-18T14:07:06.078Z,102070.97
2022-10-18T14:09:56.084Z,102077.22
2022-10-18T14:12:41.150Z,102084.19
2022-10-18T14:15:16.009Z,102094.22
2022-10-18T14:17:53.362Z,102087.75
2022-10-18T14:20:30.224Z,102087.41
2022-10-18T14:23:02.559Z,102094.69
2022-10-18T14:25:32.395Z,102083.84
2022-10-18T14:28:19.865Z,102074.69
2022-10-18T14:31:02.035Z,102077.94
2022-10-18T14:33:33.618Z,102078.44
2022-10-18T14:36:24.432Z,102074.19
2022-10-18T14:38:58.015Z,102068.59
2022-10-18T14:41:37.561Z,102077.94
2022-10-18T14:44:16.366Z,102079.28
2022-10-18T14:46:45.258Z,102072.81
2022-10-18T14:49:13.226Z,102077.59
2022-10-18T14:51:42.419Z,102077.41
2022-10-18T14:54:19.083Z,102077.94
2022-10-18T14:56:46.171Z,102075.03
2022-10-18T14:59:18.109Z,102077.94
2022-10-18T15:01:54.505Z,102078.09
2022-10-18T15:04:27.662Z,102082.88
2022-10-18T15:06:55.652Z,102078.94
2022-10-18T15:09:24.132Z,102086.91
2022-10-18T15:11:51.736Z,102087.59
2022-10-18T15:14:20.436Z,102085.22
2022-10-18T15:16:49.615Z,102091.50
2022-10-18T15:19:16.123Z,102088.59
2022-10-18T15:22:19.737Z,102090.28
2022-10-18T15:24:44.409Z,102088.94
2022-10-18T15:27:18.537Z,102094.69
2022-10-18T15:29:45.257Z,102082.34
2022-10-18T15:32:25.737Z,102098.09
2022-10-18T15:34:53.132Z,102090.97
2022-10-18T15:37:39.354Z,102087.06
2022-10-18T15:40:36.140Z,102089.94
2022-10-18T15:43:06.244Z,102088.44
2022-10-18T15:45:36.175Z,102085.72
2022-10-18T15:48:18.256Z,102084.69
2022-10-18T15:50:53.006Z,102080.13
2022-10-18T15:53:24.311Z,102085.53
2022-10-18T15:55:59.749Z,102088.09
2022-10-18T15:58:39.190Z,102095.72
2022-10-18T16:01:14.279Z,102092.34
2022-10-18T16:03:41.640Z,102098.78
2022-10-18T16:06:12.249Z,102097.28
2022-10-18T16:08:47.616Z,102098.97
2022-10-18T16:11:20.396Z,102100.81
2022-10-18T16:13:47.741Z,102104.38
2022-10-18T16:16:17.966Z,102113.00
2022-10-18T16:18:44.917Z,102114.03
2022-10-18T16:21:24.473Z,102122.34
2022-10-18T16:23:51.380Z,102126.41
2022-10-18T16:26:18.839Z,102127.94
2022-10-18T16:28:45.599Z,102115.53
2022-10-18T16:31:17.406Z,102125.06
2022-10-18T16:33:44.500Z,102116.06
2022-10-18T16:36:17.193Z,102128.78
2022-10-18T16:38:45.158Z,102120.81
2022-10-18T16:41:13.348Z,102130.84
2022-10-18T16:43:39.937Z,102128.44
2022-10-18T16:46:08.019Z,102134.69
2022-10-18T16:48:34.781Z,102133.00
2022-10-18T16:51:02.009Z,102124.03
2022-10-18T16:53:28.785Z,102124.19
2022-10-18T16:55:58.525Z,102135.41
2022-10-18T16:58:27.243Z,102135.22
2022-10-18T17:00:54.250Z,102141.50
2022-10-18T17:03:20.913Z,102125.22
2022-10-18T17:05:47.661Z,102133.84
2022-10-18T17:08:23.456Z,102130.97
2022-10-18T17:10:54.937Z,102127.41
2022-10-18T17:13:23.121Z,102136.69
2022-10-18T17:15:50.781Z,102139.28
2022-10-18T17:18:23.152Z,102137.72
2022-10-18T17:20:49.854Z,102136.03
2022-10-18T17:23:16.527Z,102138.75
2022-10-18T17:25:57.473Z,102145.00
2022-10-18T17:28:31.717Z,102144.16
2022-10-18T17:30:58.354Z,102143.31
2022-10-18T17:33:24.973Z,102141.78
2022-10-18T17:35:51.551Z,102149.41
2022-10-18T17:38:18.104Z,102152.97
2022-10-18T17:40:44.718Z,102150.25
2022-10-18T17:43:13.444Z,102159.56
2022-10-18T17:45:51.115Z,102151.97
2022-10-18T17:48:17.751Z,102145.69
2022-10-18T17:50:44.315Z,102147.22
2022-10-18T17:53:12.965Z,102155.53
2022-10-18T17:55:39.925Z,102155.69
2022-10-18T17:58:06.484Z,102146.72
2022-10-18T18:00:33.081Z,102158.22
2022-10-18T18:03:00.710Z,102156.53
2022-10-18T18:05:32.681Z,102156.53
2022-10-18T18:08:02.947Z,102151.63
2022-10-18T18:10:33.513Z,102156.53
2022-10-18T18:13:00.768Z,102166.38
2022-10-18T18:15:27.665Z,102150.28
2022-10-18T18:17:58.117Z,102157.22
2022-10-18T18:20:25.978Z,102157.03
2022-10-18T18:22:52.652Z,102146.88
2022-10-18T18:25:19.396Z,102131.78
2022-10-18T18:27:45.981Z,102144.50
2022-10-18T18:30:12.909Z,102142.47
2022-10-18T18:32:39.571Z,102149.59
2022-10-18T18:35:06.424Z,102147.03
2022-10-18T18:37:33.054Z,102147.88
2022-10-18T18:39:59.602Z,102152.28
2022-10-18T18:42:26.167Z,102162.13
2022-10-18T18:44:52.727Z,102157.53
2022-10-18T18:47:21.720Z,102160.13
2022-10-18T18:49:48.771Z,102160.13
2022-10-18T18:52:15.511Z,102160.97
2022-10-18T18:54:42.090Z,102152.97
2022-10-18T18:57:08.684Z,102153.81
2022-10-18T18:59:35.393Z,102160.44
2022-10-18T19:02:01.972Z,102161.44
2022-10-18T19:04:29.133Z,102157.38
2022-10-18T19:06:55.811Z,102153.47
2022-10-18T19:09:22.795Z,102152.47
2022-10-18T19:11:52.425Z,102153.47
2022-10-18T19:14:19.860Z,102160.78
2022-10-18T19:16:50.262Z,102155.34
2022-10-18T19:19:20.005Z,102159.06
2022-10-18T19:21:52.147Z,102157.22
2022-10-18T19:24:23.752Z,102151.97
2022-10-18T19:26:57.217Z,102154.31
2022-10-18T19:29:31.408Z,102162.63
2022-10-18T19:32:00.888Z,102160.25
2022-10-18T19:34:29.360Z,102164.84
2022-10-18T19:36:56.141Z,102163.16
2022-10-18T19:39:25.305Z,102163.16
2022-10-18T19:41:57.168Z,102167.56
2022-10-18T19:44:27.499Z,102170.25
2022-10-18T19:46:54.880Z,102175.81
2022-10-18T19:49:21.465Z,102166.00
2022-10-18T19:51:48.420Z,102179.56
2022-10-18T19:54:15.928Z,102180.41
2022-10-18T19:56:42.768Z,102182.97
2022-10-18T19:59:11.561Z,102200.09
2022-10-18T20:01:38.521Z,102190.41
2022-10-18T20:04:05.504Z,102194.81
2022-10-18T20:06:32.224Z,102184.84
2022-10-18T20:08:58.802Z,102198.38
2022-10-18T20:11:27.448Z,102189.38
2022-10-18T20:13:54.693Z,102183.09
2022-10-18T20:16:27.839Z,102192.59
2022-10-18T20:18:56.953Z,102192.78
2022-10-18T20:21:23.640Z,102204.28
2022-10-18T20:23:50.246Z,102206.31
2022-10-18T20:26:20.847Z,102204.28
2022-10-18T20:28:59.601Z,102205.31
2022-10-18T20:31:31.852Z,102212.59
2022-10-18T20:34:01.018Z,102215.13
2022-10-18T20:36:29.690Z,102220.03
2022-10-18T20:38:56.706Z,102222.09
2022-10-18T20:41:29.434Z,102223.94
2022-10-18T20:44:01.109Z,102222.94
2022-10-18T20:46:31.113Z,102224.09
2022-10-18T20:48:57.712Z,102225.81
2022-10-18T20:51:24.558Z,102235.09
2022-10-18T20:53:51.955Z,102234.25
2022-10-18T20:56:20.739Z,102236.09
2022-10-18T20:58:49.699Z,102231.53
2022-10-18T21:01:19.979Z,102233.22
2022-10-18T21:03:49.191Z,102235.25
2022-10-18T21:06:21.464Z,102243.94
2022-10-18T21:08:53.051Z,102243.41
2022-10-18T21:11:19.732Z,102237.81
2022-10-18T21:13:59.513Z,102234.91
2022-10-18T21:16:27.027Z,102226.13
2022-10-18T21:18:53.732Z,102234.59
2022-10-18T21:21:25.671Z,102228.47
2022-10-18T21:23:52.761Z,102226.44
2022-10-18T21:26:24.804Z,102223.06
2022-10-18T21:28:59.733Z,102218.31
2022-10-18T21:31:32.028Z,102213.75
2022-10-18T21:34:00.866Z,102210.69
2022-10-18T21:36:30.801Z,102207.81
2022-10-18T21:38:57.598Z,102206.97
2022-10-18T21:41:24.530Z,102201.25
2022-10-18T21:43:53.364Z,102195.81
2022-10-18T21:46:21.849Z,102198.53
2022-10-18T21:48:53.846Z,102195.81
2022-10-18T21:51:23.084Z,102196.31
2022-10-18T21:53:51.638Z,102197.69
2022-10-18T21:56:32.541Z,102201.06
2022-10-18T21:58:59.566Z,102195.16
2022-10-18T22:01:32.725Z,102189.38
2022-10-18T22:04:00.531Z,102186.69
2022-10-18T22:06:30.150Z,102191.06
2022-10-18T22:08:59.580Z,102196.34
2022-10-18T22:11:32.565Z,102201.75
2022-10-18T22:13:59.862Z,102200.41
2022-10-18T22:16:26.983Z,102202.09
2022-10-18T22:18:57.912Z,102185.47
2022-10-18T22:21:24.485Z,102190.22
2022-10-18T22:23:53.438Z,102194.81
2022-10-18T22:26:24.934Z,102192.09
2022-10-18T22:28:59.724Z,102200.06
2022-10-18T22:31:29.051Z,102206.66
2022-10-18T22:33:58.378Z,102201.41
2022-10-18T22:36:26.183Z,102194.97
2022-10-18T22:38:52.858Z,102199.03
2022-10-18T22:41:19.936Z,102198.38
2022-10-18T22:43:50.032Z,102196.66
2022-10-18T22:46:17.029Z,102188.84
2022-10-18T22:48:44.474Z,102187.69
2022-10-18T22:51:11.857Z,102187.69
2022-10-18T22:53:39.777Z,102188.84
2022-10-18T22:56:08.430Z,102180.56
2022-10-18T22:58:35.011Z,102182.09
2022-10-18T23:01:04.659Z,102188.38
2022-10-18T23:03:31.328Z,102186.84
2022-10-18T23:05:58.353Z,102184.97
2022-10-18T23:08:25.083Z,102182.44
2022-10-18T23:10:57.387Z,102193.13
2022-10-18T23:13:25.209Z,102180.41
2022-10-18T23:15:52.399Z,102185.81
2022-10-18T23:18:19.471Z,102186.69
2022-10-18T23:20:46.074Z,102184.97
2022-10-18T23:23:13.360Z,102189.38
2022-10-18T23:25:40.538Z,102185.16
2022-10-18T23:28:07.214Z,102190.72
2022-10-18T23:30:33.979Z,102196.13
2022-10-18T23:33:00.819Z,102199.56
2022-10-18T23:35:27.458Z,102199.56
2022-10-18T23:37:54.077Z,102198.69
2022-10-18T23:40:20.641Z,102200.41
2022-10-18T23:42:47.225Z,102191.25
2022-10-18T23:45:13.779Z,102193.13
2022-10-18T23:47:40.332Z,102196.66
2022-10-18T23:50:07.281Z,102189.56
2022-10-18T23:52:33.843Z,102187.00
2022-10-18T23:55:00.425Z,102183.44
2022-10-18T23:57:27.691Z,102185.28
2022-10-18T23:59:54.255Z,102184.44
